Time;durP1;ratioP1;P1;durP2;ratioP2;P2;SDS_P1;SDS_P2;PMS_P1;PMS_P2;Temp;Humidity;BMP_temperature;BMP_pressure;BME280_temperature;BME280_humidity;BME280_pressure;Samples;Min_cycle;Max_cycle;Signal;HPM_P1;HPM_P2
2021/12/31 00:02:19;;;;;;;;;14.00;13.50;;;;;13.35;73.24;101692.47;5039595;28;45262;-47
2021/12/31 00:04:45;;;;;;;;;13.50;11.00;;;;;13.32;72.90;101692.53;5021530;28;45436;-48
2021/12/31 00:07:11;;;;;;;;;12.25;10.00;;;;;13.31;72.60;101683.72;5021433;28;45261;-49
2021/12/31 00:09:37;;;;;;;;;12.25;10.00;;;;;13.29;72.63;101685.47;5039305;28;45353;-52
2021/12/31 00:12:04;;;;;;;;;19.75;13.75;;;;;13.26;73.15;101682.88;5039734;28;45229;-52
2021/12/31 00:14:30;;;;;;;;;13.75;10.50;;;;;13.27;73.30;101686.38;5021230;28;47041;-50
2021/12/31 00:16:56;;;;;;;;;12.25;11.25;;;;;13.25;73.10;101685.56;5039430;28;45374;-50
2021/12/31 00:19:22;;;;;;;;;12.50;9.50;;;;;13.23;72.99;101680.31;5039244;28;45147;-51
2021/12/31 00:21:49;;;;;;;;;15.00;14.00;;;;;13.14;73.29;101668.06;5039369;28;45584;-48
2021/12/31 00:24:14;;;;;;;;;12.75;11.25;;;;;13.20;73.02;101677.69;5021183;28;47354;-48
2021/12/31 00:26:40;;;;;;;;;10.50;10.50;;;;;13.20;73.07;101674.16;5039294;28;45321;-47
2021/12/31 00:29:05;;;;;;;;;8.50;8.25;;;;;13.18;73.07;101668.88;5040310;28;45374;-49
2021/12/31 00:31:30;;;;;;;;;14.25;11.75;;;;;13.17;72.74;101667.16;5054270;28;45483;-49
2021/12/31 00:33:56;;;;;;;;;10.75;10.75;;;;;13.16;72.98;101666.28;5062672;28;45357;-51
2021/12/31 00:36:21;;;;;;;;;11.75;9.50;;;;;13.14;72.80;101662.78;5062966;28;45264;-51
2021/12/31 00:38:47;;;;;;;;;13.00;11.00;;;;;13.15;72.93;101666.28;5045129;28;45220;-48
2021/12/31 00:41:12;;;;;;;;;14.50;12.75;;;;;13.13;73.02;101657.50;5024646;28;45175;-48
2021/12/31 00:43:38;;;;;;;;;12.50;9.75;;;;;13.11;73.18;101654.03;5042162;28;46021;-51
2021/12/31 00:46:03;;;;;;;;;11.50;11.25;;;;;13.12;73.14;101650.50;5042818;28;45442;-48
2021/12/31 00:48:29;;;;;;;;;160.00;138.00;;;;;13.10;72.92;101658.41;5042579;28;45250;-52
2021/12/31 00:50:56;;;;;;;;;16.75;13.00;;;;;13.09;72.79;101651.38;5042568;28;45282;-49
2021/12/31 00:53:22;;;;;;;;;11.25;9.50;;;;;13.07;72.73;101650.53;5042272;28;46552;-52
2021/12/31 00:55:47;;;;;;;;;13.00;10.50;;;;;13.08;72.74;101664.59;5042155;28;45361;-51
2021/12/31 00:58:13;;;;;;;;;10.00;8.75;;;;;13.04;72.97;101660.25;5042172;28;45360;-47
2021/12/31 01:00:38;;;;;;;;;16.25;11.25;;;;;13.05;72.58;101667.28;5042345;28;45440;-49
2021/12/31 01:03:04;;;;;;;;;13.00;9.75;;;;;13.02;72.51;101668.19;5042201;28;45596;-48
2021/12/31 01:05:29;;;;;;;;;11.75;10.50;;;;;13.04;72.69;101668.16;5042058;28;45357;-52
2021/12/31 01:07:55;;;;;;;;;10.00;8.75;;;;;13.01;72.61;101663.78;5042249;28;45738;-49
2021/12/31 01:10:23;;;;;;;;;10.75;8.75;;;;;12.97;73.05;101668.22;5042182;28;45297;-49
2021/12/31 01:12:50;;;;;;;;;11.00;10.50;;;;;12.97;72.79;101668.22;5024109;28;47128;-52
2021/12/31 01:15:39;;;;;;;;;8.75;7.75;;;;;12.94;73.00;101668.25;5041963;28;45337;-51
2021/12/31 01:20:38;;;;;;;;;12.75;11.25;;;;;12.92;72.75;101669.16;5041810;28;45478;-51
2021/12/31 01:23:04;;;;;;;;;12.75;10.25;;;;;12.89;73.32;101663.91;5041885;28;45372;-49
2021/12/31 01:25:30;;;;;;;;;11.25;11.25;;;;;12.86;73.17;101650.75;5023732;28;45294;-52
2021/12/31 01:27:55;;;;;;;;;12.50;12.25;;;;;12.81;73.11;101641.09;5041957;28;45332;-51
2021/12/31 01:30:21;;;;;;;;;12.00;9.75;;;;;12.80;73.48;101638.47;5043216;28;45420;-50
2021/12/31 01:32:46;;;;;;;;;11.00;11.00;;;;;12.76;72.99;101629.72;5062001;28;46219;-49
2021/12/31 01:35:13;;;;;;;;;10.00;10.00;;;;;12.80;73.30;101627.94;5061865;28;45468;-50
2021/12/31 01:37:39;;;;;;;;;13.75;10.75;;;;;12.74;73.05;101634.16;5035372;28;45335;-49
2021/12/31 01:40:06;;;;;;;;;9.00;9.00;;;;;12.74;73.13;101622.72;5040346;28;45507;-52
2021/12/31 01:42:33;;;;;;;;;12.75;11.00;;;;;12.70;73.35;101616.59;5041723;28;46038;-51
2021/12/31 01:45:16;;;;;;;;;14.00;11.50;;;;;12.71;73.24;101623.63;5023322;28;45356;-50
2021/12/31 01:50:20;;;;;;;;;9.00;8.50;;;;;12.71;73.18;101630.66;5041403;28;45316;-49
2021/12/31 01:52:45;;;;;;;;;8.75;8.25;;;;;12.71;73.01;101633.31;5041373;28;46077;-49
2021/12/31 01:55:12;;;;;;;;;10.25;9.25;;;;;12.70;72.69;101621.84;5041325;28;45382;-49
2021/12/31 01:57:40;;;;;;;;;12.25;9.50;;;;;12.72;72.88;101635.06;5023990;28;45250;-51
2021/12/31 02:00:06;;;;;;;;;12.75;12.00;;;;;12.74;72.78;101649.09;5033321;28;45277;-51
2021/12/31 02:02:32;;;;;;;;;16.00;12.25;;;;;12.73;73.02;101652.59;5048075;28;46081;-50
2021/12/31 02:04:57;;;;;;;;;10.00;9.75;;;;;12.75;72.69;101664.03;5041151;28;45245;-50
2021/12/31 02:07:23;;;;;;;;;10.25;10.25;;;;;12.74;72.63;101662.28;5041497;28;45316;-49
2021/12/31 02:09:53;;;;;;;;;10.75;9.50;;;;;12.75;72.75;101664.03;5041048;28;45317;-49
2021/12/31 02:12:18;;;;;;;;;8.50;7.50;;;;;12.75;72.56;101671.94;5041299;28;45167;-52
2021/12/31 02:14:44;;;;;;;;;14.75;13.25;;;;;12.75;72.66;101677.22;5041007;28;45233;-51
2021/12/31 02:17:10;;;;;;;;;11.00;9.00;;;;;12.74;72.47;101668.44;5023343;28;45199;-51
2021/12/31 02:19:37;;;;;;;;;9.50;8.75;;;;;12.75;72.81;101666.66;5041006;28;45327;-50
2021/12/31 02:22:03;;;;;;;;;13.25;12.00;;;;;12.75;72.32;101656.97;5040825;28;46038;-51
2021/12/31 02:24:30;;;;;;;;;11.75;9.25;;;;;12.76;72.69;101661.38;5040919;28;45333;-51
2021/12/31 02:26:55;;;;;;;;;7.00;7.00;;;;;12.76;72.67;101653.47;5041089;28;45530;-51
2021/12/31 02:29:23;;;;;;;;;11.50;11.00;;;;;12.76;72.46;101657.88;5040738;28;45556;-50
2021/12/31 02:31:49;;;;;;;;;10.75;10.75;;;;;12.74;72.22;101651.72;5054664;28;46096;-47
2021/12/31 02:34:14;;;;;;;;;12.50;11.50;;;;;12.75;72.36;101656.13;5061167;28;45329;-51
2021/12/31 02:36:39;;;;;;;;;11.75;10.50;;;;;12.75;72.23;101649.06;5060578;28;45253;-49
2021/12/31 02:39:05;;;;;;;;;14.25;12.50;;;;;12.74;72.17;101643.81;5040645;28;45392;-51
2021/12/31 02:41:31;;;;;;;;;9.75;8.00;;;;;12.68;72.23;101642.13;5040628;28;45341;-48
2021/12/31 02:43:56;;;;;;;;;11.00;9.00;;;;;12.68;72.61;101640.34;5040773;28;45209;-48
2021/12/31 02:46:21;;;;;;;;;9.25;9.25;;;;;12.65;72.33;101635.09;5040956;28;45316;-51
2021/12/31 02:48:55;;;;;;;;;12.25;9.50;;;;;12.65;72.31;101635.09;5022802;28;45263;-51
2021/12/31 02:51:21;;;;;;;;;10.75;10.25;;;;;12.61;72.21;101622.81;5040195;28;46048;-49
2021/12/31 02:53:51;;;;;;;;;12.75;9.25;;;;;12.60;72.43;101621.09;5040602;28;45495;-52
2021/12/31 02:56:18;;;;;;;;;12.00;11.50;;;;;12.57;72.54;101618.47;5040803;28;45246;-52
2021/12/31 02:58:43;;;;;;;;;16.50;11.50;;;;;12.56;72.11;101621.97;5040520;28;45245;-47
2021/12/31 03:01:09;;;;;;;;;6.75;6.75;;;;;12.54;72.21;101621.13;5040298;28;45382;-50
2021/12/31 03:03:36;;;;;;;;;15.00;12.00;;;;;12.51;72.41;101614.13;5040541;28;45225;-52
2021/12/31 03:06:02;;;;;;;;;14.00;11.75;;;;;12.50;72.21;101615.00;5040359;28;45276;-51
2021/12/31 03:08:31;;;;;;;;;11.25;11.00;;;;;12.48;72.48;101600.09;5040304;28;45377;-49
2021/12/31 03:11:00;;;;;;;;;11.25;11.25;;;;;12.45;72.07;101592.19;5039970;28;45311;-48
2021/12/31 03:13:26;;;;;;;;;13.25;10.75;;;;;12.43;72.24;101588.72;5040142;28;45259;-52
2021/12/31 03:15:52;;;;;;;;;11.00;11.00;;;;;12.41;72.23;101585.22;5040263;28;45150;-49
2021/12/31 03:18:19;;;;;;;;;11.50;10.00;;;;;12.36;72.30;101585.25;5040387;28;45408;-50
2021/12/31 03:21:08;;;;;;;;;9.25;8.00;;;;;12.39;72.33;101594.88;5039851;28;46168;-47
2021/12/31 03:23:33;;;;;;;;;9.25;9.25;;;;;12.34;72.12;101590.53;5040269;28;45206;-48
2021/12/31 03:25:59;;;;;;;;;13.75;12.25;;;;;12.30;72.49;101588.81;5039972;28;45852;-47
2021/12/31 03:28:25;;;;;;;;;9.00;9.00;;;;;12.30;72.17;101601.09;5022086;28;45449;-50
2021/12/31 03:30:51;;;;;;;;;9.50;8.25;;;;;12.31;72.27;101610.75;5045639;28;46312;-51
2021/12/31 03:33:17;;;;;;;;;13.50;9.75;;;;;12.29;72.26;101616.06;5060046;28;45375;-47
2021/12/31 03:35:42;;;;;;;;;11.50;10.50;;;;;12.27;72.15;101612.53;5060140;28;45371;-48
2021/12/31 03:38:08;;;;;;;;;7.75;7.00;;;;;12.26;72.23;101621.31;5047758;28;45348;-46
2021/12/31 03:40:33;;;;;;;;;12.75;8.00;;;;;12.25;71.98;101635.41;5039554;28;47003;-45
2021/12/31 03:42:59;;;;;;;;;10.50;9.00;;;;;12.25;71.96;101640.69;5039748;28;45340;-53
2021/12/31 03:45:25;;;;;;;;;8.25;8.00;;;;;12.25;72.28;101651.22;5039978;28;45328;-51
2021/12/31 03:47:50;;;;;;;;;9.25;9.25;;;;;12.21;71.74;101664.41;5039916;28;45261;-51
2021/12/31 03:50:16;;;;;;;;;10.75;9.25;;;;;12.21;71.87;101683.72;5021644;28;45898;-48
2021/12/31 03:52:42;;;;;;;;;9.50;9.25;;;;;12.17;72.03;101682.88;5039925;28;45314;-51
2021/12/31 03:55:10;;;;;;;;;10.50;9.75;;;;;12.16;72.13;101674.97;5039740;28;45404;-53
2021/12/31 03:57:36;;;;;;;;;12.25;12.00;;;;;12.14;72.22;101653.91;5039711;28;45476;-48
2021/12/31 04:00:07;;;;;;;;;13.75;13.50;;;;;12.13;72.10;101648.66;5039087;28;45453;-50
2021/12/31 04:02:34;;;;;;;;;14.00;11.75;;;;;12.12;71.92;101637.22;5039741;28;45224;-47
2021/12/31 04:04:59;;;;;;;;;11.50;11.50;;;;;12.06;72.12;101602.16;5024174;28;45297;-47
2021/12/31 04:07:25;;;;;;;;;11.50;11.50;;;;;12.11;71.84;101613.53;5025487;28;45419;-51
2021/12/31 04:09:50;;;;;;;;;14.00;12.00;;;;;12.11;71.87;101624.06;5042820;28;45964;-47
2021/12/31 04:12:16;;;;;;;;;14.25;11.50;;;;;12.10;72.03;101636.38;5043219;28;45267;-52
2021/12/31 04:14:41;;;;;;;;;13.50;12.50;;;;;12.03;72.05;101613.59;5025093;28;45254;-47
2021/12/31 04:17:07;;;;;;;;;11.00;11.00;;;;;12.10;71.98;101610.03;5043177;28;45267;-49
2021/12/31 04:19:32;;;;;;;;;13.00;11.75;;;;;12.08;72.21;101596.00;5042658;28;45466;-50
2021/12/31 04:21:58;;;;;;;;;11.00;10.25;;;;;12.08;71.95;101592.50;5025095;28;45550;-49
2021/12/31 04:25:06;;;;;;;;;13.00;12.50;;;;;12.05;71.75;101609.19;5024902;28;45543;-49
2021/12/31 04:27:12;;;;;;;;;12.75;12.00;;;;;12.07;71.94;101617.94;5034408;28;45237;-51
2021/12/31 04:29:38;;;;;;;;;13.50;11.25;;;;;12.05;71.65;101608.31;5042469;28;45808;-48
2021/12/31 04:32:05;;;;;;;;;14.25;12.50;;;;;12.03;72.02;101611.81;5038154;28;45243;-48
2021/12/31 04:34:30;;;;;;;;;14.00;13.00;;;;;12.05;71.59;101613.56;5043056;28;45194;-48
2021/12/31 04:36:56;;;;;;;;;13.50;12.50;;;;;12.02;71.84;101610.09;5033208;28;45438;-47
2021/12/31 04:39:21;;;;;;;;;13.25;12.25;;;;;12.01;71.60;101604.81;5042583;28;46444;-48
2021/12/31 04:41:47;;;;;;;;;13.75;12.75;;;;;11.99;71.86;101602.19;5042622;28;45485;-50
2021/12/31 04:44:12;;;;;;;;;14.25;10.75;;;;;11.98;71.55;101608.34;5042737;28;45340;-47
2021/12/31 04:46:38;;;;;;;;;18.75;12.50;;;;;11.97;71.72;101598.69;5042565;28;45251;-48
2021/12/31 04:49:03;;;;;;;;;14.50;13.50;;;;;11.96;71.83;101598.69;5042774;28;45361;-48
2021/12/31 04:51:29;;;;;;;;;12.00;11.50;;;;;11.92;71.80;101589.91;5042274;28;45431;-51
2021/12/31 04:53:54;;;;;;;;;15.25;12.00;;;;;11.89;71.48;101579.41;5042788;28;45402;-50
2021/12/31 04:56:20;;;;;;;;;14.75;13.00;;;;;11.87;71.73;101575.91;5042380;28;45319;-51
2021/12/31 04:58:45;;;;;;;;;12.75;10.00;;;;;11.85;71.88;101573.28;5042211;28;46047;-45
2021/12/31 05:01:11;;;;;;;;;11.75;10.25;;;;;11.82;71.48;101573.31;5042228;28;45254;-48
2021/12/31 05:03:36;;;;;;;;;12.25;11.25;;;;;11.81;71.59;101583.84;5042634;28;45364;-48
2021/12/31 05:06:01;;;;;;;;;16.50;12.50;;;;;11.81;71.60;101594.38;5042200;28;45313;-50
2021/12/31 05:08:27;;;;;;;;;12.25;12.00;;;;;11.78;71.56;101583.88;5042427;28;45203;-47
2021/12/31 05:10:52;;;;;;;;;11.50;11.50;;;;;11.76;71.62;101590.88;5042102;28;45466;-45
2021/12/31 05:13:19;;;;;;;;;11.00;11.00;;;;;11.76;71.24;101596.16;5037644;28;45312;-47
2021/12/31 05:15:46;;;;;;;;;15.25;13.00;;;;;11.75;71.56;101591.75;5046577;28;45439;-49
2021/12/31 05:18:13;;;;;;;;;12.50;9.00;;;;;11.74;71.50;101592.69;5042141;28;46145;-52
2021/12/31 05:20:40;;;;;;;;;14.00;13.25;;;;;11.73;71.26;101596.19;5041818;28;45301;-49
2021/12/31 05:23:05;;;;;;;;;9.25;9.25;;;;;11.69;71.35;101596.19;5042237;28;45366;-50
2021/12/31 05:25:31;;;;;;;;;12.00;9.00;;;;;11.70;71.05;101597.06;5041772;28;45317;-50
2021/12/31 05:27:57;;;;;;;;;10.25;9.00;;;;;11.69;71.51;101598.81;5041744;28;46042;-51
2021/12/31 05:30:22;;;;;;;;;8.25;8.00;;;;;11.68;71.41;101615.53;5043765;28;45242;-50
2021/12/31 05:32:48;;;;;;;;;10.50;8.00;;;;;11.69;71.36;101609.34;5062223;28;45481;-51
2021/12/31 05:35:14;;;;;;;;;8.75;8.75;;;;;11.67;71.44;101595.34;5061964;28;45384;-51
2021/12/31 05:37:40;;;;;;;;;9.75;9.50;;;;;11.65;71.40;101586.56;5053193;28;46157;-51
2021/12/31 05:40:06;;;;;;;;;10.00;9.00;;;;;11.64;71.35;101578.69;5041333;28;45506;-51
2021/12/31 05:42:31;;;;;;;;;8.25;8.25;;;;;11.63;71.36;101583.03;5032693;28;45391;-51
2021/12/31 05:44:57;;;;;;;;;9.50;8.50;;;;;11.60;71.47;101569.06;5046193;28;45297;-48
2021/12/31 05:47:23;;;;;;;;;9.00;8.50;;;;;11.60;71.37;101572.56;5041696;28;46311;-49
2021/12/31 05:49:49;;;;;;;;;5.75;5.50;;;;;11.58;71.42;101569.03;5041466;28;45349;-49
2021/12/31 05:52:14;;;;;;;;;6.75;6.75;;;;;11.56;71.39;101565.56;5032511;28;45404;-48
2021/12/31 05:54:39;;;;;;;;;7.25;7.00;;;;;11.54;71.34;101565.53;5046142;28;45306;-48
2021/12/31 05:57:05;;;;;;;;;8.50;7.00;;;;;11.53;71.53;101555.03;5041543;28;45349;-45
2021/12/31 05:59:30;;;;;;;;;5.75;4.75;;;;;11.51;71.56;101556.81;5048297;28;45507;-47
2021/12/31 06:01:55;;;;;;;;;5.50;5.00;;;;;11.51;71.60;101559.44;5041723;28;45305;-46
2021/12/31 06:04:22;;;;;;;;;6.50;6.50;;;;;11.51;71.40;101551.56;5041404;28;45352;-48
2021/12/31 06:06:48;;;;;;;;;9.25;6.50;;;;;11.49;71.46;101542.78;5041455;28;45345;-48
2021/12/31 06:09:13;;;;;;;;;6.00;6.00;;;;;11.50;71.31;101549.78;5041028;28;45281;-47
2021/12/31 06:11:40;;;;;;;;;6.00;5.00;;;;;11.47;71.45;101555.06;5041550;28;45368;-48
2021/12/31 06:14:07;;;;;;;;;6.00;5.00;;;;;11.48;71.51;101577.88;5040947;28;45474;-48
2021/12/31 06:16:37;;;;;;;;;8.00;6.00;;;;;11.49;71.25;101577.00;5041378;28;45412;-46
2021/12/31 06:19:05;;;;;;;;;8.00;7.00;;;;;11.46;71.63;101587.50;5041101;28;45219;-51
2021/12/31 06:21:35;;;;;;;;;6.50;6.50;;;;;11.48;71.46;101588.41;5041212;28;45364;-50
2021/12/31 06:24:02;;;;;;;;;6.75;4.25;;;;;11.46;71.51;101596.31;5040872;28;45499;-49
2021/12/31 06:26:27;;;;;;;;;8.00;5.25;;;;;11.44;71.31;101592.78;5040374;28;45292;-49
2021/12/31 06:28:53;;;;;;;;;5.00;4.50;;;;;11.44;71.52;101591.94;5040565;28;45289;-46
2021/12/31 06:31:18;;;;;;;;;7.50;6.75;;;;;11.43;71.51;101601.56;5050839;28;45449;-47
2021/12/31 06:33:43;;;;;;;;;6.00;6.00;;;;;11.40;71.46;101582.31;5060965;28;45554;-47
2021/12/31 06:36:09;;;;;;;;;8.00;6.25;;;;;11.41;71.50;101570.88;5061116;28;45262;-50
2021/12/31 06:38:34;;;;;;;;;8.75;6.25;;;;;11.37;71.43;101567.38;5044609;28;45248;-49
2021/12/31 06:41:00;;;;;;;;;7.75;6.00;;;;;11.36;71.64;101569.16;5040834;28;45226;-48
2021/12/31 06:43:25;;;;;;;;;7.50;5.00;;;;;11.36;71.53;101581.44;5022630;28;45263;-50
2021/12/31 06:45:51;;;;;;;;;6.25;6.00;;;;;11.34;71.48;101591.94;5040833;28;46025;-49
2021/12/31 06:48:16;;;;;;;;;5.50;5.50;;;;;11.31;71.20;101578.81;5040644;28;45225;-48
2021/12/31 06:50:42;;;;;;;;;8.00;8.00;;;;;11.31;71.58;101583.22;5040940;28;45183;-46
2021/12/31 06:53:07;;;;;;;;;5.00;5.00;;;;;11.33;71.45;101591.97;5022674;28;45510;-46
2021/12/31 06:55:32;;;;;;;;;5.00;5.00;;;;;11.33;71.41;101598.13;5040599;28;45366;-47
2021/12/31 06:57:59;;;;;;;;;6.00;5.75;;;;;11.32;71.45;101596.38;5040307;28;45258;-47
2021/12/31 07:00:24;;;;;;;;;5.00;5.00;;;;;11.32;71.57;101603.38;5040624;28;45312;-49
2021/12/31 07:02:50;;;;;;;;;5.00;5.00;;;;;11.31;71.43;101606.91;5040238;28;45272;-49
2021/12/31 07:05:16;;;;;;;;;7.50;6.00;;;;;11.31;71.40;101615.66;5040298;28;45566;-49
2021/12/31 07:07:41;;;;;;;;;7.00;7.00;;;;;11.32;71.64;101600.72;5040360;28;45450;-49
2021/12/31 07:10:07;;;;;;;;;6.75;5.50;;;;;11.29;71.63;101584.97;5040493;28;45396;-48
2021/12/31 07:12:33;;;;;;;;;7.75;6.50;;;;;11.26;71.46;101572.69;5040331;28;45230;-50
2021/12/31 07:14:58;;;;;;;;;9.00;7.50;;;;;11.24;71.68;101579.72;5040286;28;46236;-49
2021/12/31 07:17:24;;;;;;;;;8.50;6.75;;;;;11.25;71.47;101614.81;5035606;28;45439;-47
2021/12/31 07:19:49;;;;;;;;;8.50;8.50;;;;;11.25;71.37;101628.81;5040290;28;45212;-51
2021/12/31 07:22:14;;;;;;;;;8.00;7.00;;;;;11.26;71.41;101629.69;5040120;28;45159;-47
2021/12/31 07:24:40;;;;;;;;;7.50;7.50;;;;;11.23;71.33;101625.31;5040264;28;45223;-48
2021/12/31 07:27:05;;;;;;;;;8.75;8.75;;;;;11.22;71.54;101629.72;5040101;28;45165;-47
2021/12/31 07:29:30;;;;;;;;;8.00;8.00;;;;;11.21;71.60;101624.47;5039941;28;45749;-51
2021/12/31 07:31:56;;;;;;;;;7.75;6.50;;;;;11.18;71.53;101616.56;5055085;28;45312;-48
2021/12/31 07:34:21;;;;;;;;;8.00;8.00;;;;;11.17;71.62;101615.69;5042135;28;47606;-50
2021/12/31 07:36:47;;;;;;;;;11.00;8.75;;;;;11.14;71.68;101627.97;5054548;28;45431;-49
2021/12/31 07:39:13;;;;;;;;;6.75;6.75;;;;;11.11;71.72;101626.25;5021164;28;45432;-51
2021/12/31 07:41:39;;;;;;;;;9.00;8.00;;;;;11.13;71.66;101636.75;5039810;28;45520;-48
2021/12/31 07:44:06;;;;;;;;;8.00;8.00;;;;;11.14;71.55;101641.13;5039623;28;45284;-49
2021/12/31 07:46:32;;;;;;;;;9.00;9.00;;;;;11.11;71.48;101622.75;5021838;28;45364;-47
2021/12/31 07:48:57;;;;;;;;;9.50;9.25;;;;;11.06;71.40;101622.75;5039904;28;45201;-47
2021/12/31 07:51:22;;;;;;;;;5.75;5.50;;;;;11.07;71.67;101616.59;5039680;28;45457;-46
2021/12/31 07:53:48;;;;;;;;;10.25;8.75;;;;;11.04;71.70;101611.34;5039628;28;46396;-47
2021/12/31 07:56:14;;;;;;;;;8.00;8.00;;;;;11.03;71.71;101607.84;5039671;28;45205;-46
2021/12/31 07:58:40;;;;;;;;;11.25;10.25;;;;;11.00;71.67;101613.09;5039861;28;45222;-49
2021/12/31 08:01:05;;;;;;;;;11.50;9.00;;;;;11.01;71.70;101625.38;5039589;28;45560;-49
2021/12/31 08:03:33;;;;;;;;;8.75;8.00;;;;;11.02;71.74;101621.00;5021922;28;46221;-49
2021/12/31 08:05:58;;;;;;;;;10.25;10.25;;;;;11.03;71.74;101628.00;5021532;28;45332;-49
2021/12/31 08:08:24;;;;;;;;;8.75;7.75;;;;;11.03;71.89;101631.53;5039806;28;45242;-50
2021/12/31 08:10:49;;;;;;;;;11.00;8.00;;;;;11.02;71.73;101632.41;5039418;28;45503;-48
2021/12/31 08:13:14;;;;;;;;;11.00;9.00;;;;;11.03;71.73;101623.63;5039448;28;46005;-47
2021/12/31 08:15:40;;;;;;;;;9.25;8.25;;;;;11.02;71.68;101615.75;5039548;28;45333;-52
2021/12/31 08:18:05;;;;;;;;;11.50;9.00;;;;;10.99;71.99;101627.16;5021976;28;45463;-50
2021/12/31 08:20:31;;;;;;;;;8.25;8.25;;;;;10.98;71.88;101622.75;5021699;28;45341;-46
2021/12/31 08:23:05;;;;;;;;;10.75;10.75;;;;;10.96;72.10;101636.78;5039407;28;46300;-49
2021/12/31 08:25:30;;;;;;;;;6.50;5.00;;;;;10.97;72.04;101643.78;5039269;28;45348;-50
2021/12/31 08:27:55;;;;;;;;;11.50;8.50;;;;;11.01;71.93;101656.94;5039396;28;45328;-49
2021/12/31 08:30:21;;;;;;;;;11.75;10.75;;;;;11.06;71.98;101660.44;5034210;28;45384;-48
2021/12/31 08:32:46;;;;;;;;;9.00;9.00;;;;;11.03;72.03;101659.56;5059466;28;45380;-48
2021/12/31 08:35:12;;;;;;;;;13.25;11.00;;;;;11.03;71.98;101649.94;5059442;28;45507;-50
2021/12/31 08:37:38;;;;;;;;;8.50;8.50;;;;;11.00;72.26;101644.66;5041414;28;45256;-48
2021/12/31 08:40:04;;;;;;;;;10.25;9.50;;;;;11.05;72.55;101649.91;5058981;28;45277;-50
2021/12/31 08:42:30;;;;;;;;;10.00;9.25;;;;;11.13;72.28;101676.22;5059187;28;45596;-47
2021/12/31 08:44:55;;;;;;;;;13.25;10.00;;;;;11.18;72.23;101670.06;5059012;28;45414;-49
2021/12/31 08:47:21;;;;;;;;;9.50;9.50;;;;;11.22;72.21;101660.44;5059497;28;45178;-48
2021/12/31 08:49:46;;;;;;;;;10.25;9.00;;;;;11.26;72.04;101670.06;5059841;28;45275;-47
2021/12/31 08:52:11;;;;;;;;;13.25;11.50;;;;;11.31;72.17;101680.59;5062828;28;45228;-51
2021/12/31 08:54:37;;;;;;;;;12.75;12.00;;;;;11.36;72.16;101671.78;5062446;28;45220;-48
2021/12/31 08:57:03;;;;;;;;;11.50;11.00;;;;;11.37;72.26;101673.53;5063091;28;45423;-51
2021/12/31 08:59:29;;;;;;;;;9.00;9.00;;;;;11.36;72.37;101663.03;5062034;28;45397;-50
2021/12/31 09:01:54;;;;;;;;;9.75;9.75;;;;;11.41;72.53;101663.88;5062859;28;45273;-48
2021/12/31 09:04:20;;;;;;;;;10.50;9.25;;;;;11.47;72.40;101669.13;5044091;28;45945;-47
2021/12/31 09:06:45;;;;;;;;;10.25;9.25;;;;;11.53;72.16;101684.00;5062703;28;45339;-48
2021/12/31 09:09:10;;;;;;;;;9.75;8.50;;;;;11.61;72.14;101676.09;5062157;28;45401;-48
2021/12/31 09:11:36;;;;;;;;;10.25;9.00;;;;;11.60;72.22;101653.28;5062344;28;46152;-48
2021/12/31 09:14:02;;;;;;;;;15.50;13.00;;;;;11.62;72.67;101649.78;5062173;28;45408;-47
2021/12/31 09:16:27;;;;;;;;;12.75;12.50;;;;;11.67;72.53;101644.47;5062646;28;45226;-47
2021/12/31 09:18:53;;;;;;;;;11.50;9.75;;;;;11.69;72.60;101642.72;5062412;28;45221;-48
2021/12/31 09:21:20;;;;;;;;;14.00;10.00;;;;;11.75;72.31;101654.97;5043946;28;46936;-49
2021/12/31 09:23:46;;;;;;;;;10.75;9.50;;;;;11.79;72.42;101662.00;5062115;28;45277;-51
2021/12/31 09:26:11;;;;;;;;;16.00;16.00;;;;;11.83;72.34;101684.78;5062257;28;45523;-52
2021/12/31 09:28:37;;;;;;;;;14.25;14.00;;;;;11.86;72.21;101713.72;5061877;28;45349;-47
2021/12/31 09:31:05;;;;;;;;;17.75;15.00;;;;;11.82;72.42;101691.81;5055390;28;46122;-45
2021/12/31 09:33:30;;;;;;;;;13.75;11.50;;;;;11.84;72.42;101682.13;5061807;28;45375;-50
2021/12/31 09:35:56;;;;;;;;;12.50;9.00;;;;;11.85;72.33;101672.50;5062256;28;45365;-47
2021/12/31 09:38:21;;;;;;;;;12.50;11.50;;;;;11.86;72.23;101688.28;5047267;28;45483;-51
2021/12/31 09:40:47;;;;;;;;;12.75;12.25;;;;;11.85;71.92;101688.28;5041523;28;45439;-49
2021/12/31 09:43:13;;;;;;;;;8.00;8.00;;;;;11.87;71.97;101716.38;5041553;28;45599;-51
2021/12/31 09:45:42;;;;;;;;;17.25;15.75;;;;;11.87;71.95;101707.59;5041718;28;45436;-47
2021/12/31 09:48:13;;;;;;;;;12.50;10.50;;;;;11.87;71.92;101707.59;5041540;28;45433;-50
2021/12/31 09:50:50;;;;;;;;;17.25;15.50;;;;;11.89;72.05;101704.97;5023447;28;47523;-48
2021/12/31 09:53:18;;;;;;;;;17.00;16.00;;;;;11.89;71.99;101697.94;5041471;28;45306;-52
2021/12/31 09:55:52;;;;;;;;;14.25;13.25;;;;;11.93;71.87;101697.03;5041414;28;45260;-50
2021/12/31 09:58:20;;;;;;;;;14.00;11.75;;;;;11.95;71.90;101700.53;5041141;28;45321;-49
2021/12/31 10:00:48;;;;;;;;;16.25;15.50;;;;;11.98;71.95;101708.44;5040907;28;46329;-50
2021/12/31 10:03:18;;;;;;;;;13.75;12.00;;;;;12.07;72.16;101717.19;5040506;28;45292;-49
2021/12/31 10:05:45;;;;;;;;;13.00;13.00;;;;;12.17;72.12;101745.25;5041296;28;45297;-51
2021/12/31 10:08:19;;;;;;;;;14.25;13.25;;;;;12.26;72.16;101765.41;5059440;28;45317;-46
2021/12/31 10:11:20;;;;;;;;;14.50;14.50;;;;;12.33;72.10;101772.41;5046857;28;47037;-48
2021/12/31 10:13:51;;;;;;;;;14.00;13.25;;;;;12.42;72.22;101768.84;5040931;28;45185;-49
2021/12/31 10:16:19;;;;;;;;;15.75;13.75;;;;;12.49;72.26;101762.63;5041233;28;45573;-49
2021/12/31 10:18:45;;;;;;;;;14.25;12.00;;;;;12.55;72.21;101764.38;5045818;28;45549;-50
2021/12/31 10:21:10;;;;;;;;;19.00;16.00;;;;;12.68;72.07;101766.94;5041190;28;46015;-47
2021/12/31 10:23:39;;;;;;;;;15.25;15.25;;;;;12.76;72.59;101756.31;5040978;28;45332;-49
2021/12/31 10:26:07;;;;;;;;;18.00;17.00;;;;;12.92;72.14;101757.09;5041203;28;45321;-49
2021/12/31 10:28:33;;;;;;;;;19.25;15.75;;;;;13.07;72.38;101760.47;5040730;28;45230;-50
2021/12/31 10:31:13;;;;;;;;;15.75;14.25;;;;;13.18;72.62;101734.88;5047737;28;46222;-48
2021/12/31 10:33:43;;;;;;;;;16.00;15.75;;;;;13.32;72.29;101751.47;5060777;28;45373;-49
2021/12/31 10:36:08;;;;;;;;;16.25;15.50;;;;;13.47;72.24;101747.84;5060849;28;45359;-48
2021/12/31 10:38:39;;;;;;;;;17.50;16.50;;;;;13.60;72.69;101759.13;5044587;28;45165;-50
2021/12/31 10:41:05;;;;;;;;;15.00;13.75;;;;;13.74;72.28;101760.75;5040498;28;46343;-48
2021/12/31 10:43:31;;;;;;;;;16.00;13.00;;;;;13.87;72.43;101775.56;5040210;28;45278;-49
2021/12/31 10:46:02;;;;;;;;;14.50;14.00;;;;;13.99;72.71;101793.06;5040962;28;45459;-46
2021/12/31 10:48:52;;;;;;;;;15.00;14.00;;;;;14.08;72.20;101797.38;5040608;28;45458;-52
2021/12/31 10:51:34;;;;;;;;;17.00;17.00;;;;;14.28;72.14;101826.19;5040360;28;45442;-50
2021/12/31 10:54:28;;;;;;;;;14.00;12.50;;;;;14.42;72.27;101833.97;5040535;28;45404;-45
2021/12/31 10:56:54;;;;;;;;;12.75;12.75;;;;;14.53;72.19;101825.91;5040812;28;45323;-51
2021/12/31 10:59:19;;;;;;;;;16.25;13.25;;;;;14.65;72.39;101830.16;5040203;28;45407;-49
2021/12/31 11:01:45;;;;;;;;;13.00;13.00;;;;;14.73;71.92;101838.84;5040375;28;45344;-49
2021/12/31 11:04:11;;;;;;;;;9.75;9.75;;;;;14.86;71.79;101843.06;5040185;28;45332;-50
2021/12/31 11:06:40;;;;;;;;;14.25;13.00;;;;;14.97;71.86;101816.47;5040863;28;45439;-51
2021/12/31 11:09:07;;;;;;;;;12.75;12.00;;;;;15.08;72.17;101816.28;5040194;28;45435;-49
2021/12/31 11:11:34;;;;;;;;;15.50;13.00;;;;;15.20;71.75;101809.94;5035999;28;47648;-49
2021/12/31 11:14:02;;;;;;;;;13.25;13.25;;;;;15.34;71.87;101807.03;5044121;28;45388;-50
2021/12/31 11:16:27;;;;;;;;;15.75;14.00;;;;;15.42;71.47;101802.47;5040448;28;45191;-49
2021/12/31 11:18:54;;;;;;;;;17.25;11.50;;;;;15.57;71.50;101814.56;5040024;28;45316;-50
2021/12/31 11:21:19;;;;;;;;;9.75;8.75;;;;;15.69;71.51;101819.66;5040044;28;47240;-52